createdAt,value
2019-02-27T00:01:24.230Z,69.84
2019-02-27T00:03:35.241Z,69.79
2019-02-27T00:05:46.055Z,70.13
2019-02-27T00:07:56.857Z,70.09
2019-02-27T00:10:07.851Z,70.24
2019-02-27T00:12:19.360Z,70.03
2019-02-27T00:14:31.812Z,70.00
2019-02-27T00:16:44.637Z,69.90
2019-02-27T00:18:58.822Z,69.60
2019-02-27T00:21:11.032Z,69.38
2019-02-27T00:23:24.058Z,69.31
2019-02-27T00:25:36.112Z,69.37
2019-02-27T00:27:49.103Z,69.71
2019-02-27T00:30:04.591Z,70.30
2019-02-27T00:32:13.220Z,70.94
2019-02-27T00:34:24.123Z,71.62
2019-02-27T00:36:34.954Z,71.17
2019-02-27T00:38:45.751Z,70.78
2019-02-27T00:40:56.563Z,70.89
2019-02-27T00:43:07.372Z,70.74
2019-02-27T00:45:18.169Z,70.73
2019-02-27T00:47:29.135Z,70.72
2019-02-27T00:49:40.026Z,70.61
2019-02-27T00:51:50.842Z,70.75
2019-02-27T00:54:01.743Z,70.85
2019-02-27T00:56:12.925Z,70.56
2019-02-27T00:58:27.044Z,70.56
2019-02-27T01:00:39.351Z,70.78
2019-02-27T01:02:53.491Z,70.76
2019-02-27T01:05:45.211Z,70.73
2019-02-27T01:07:56.139Z,70.70
2019-02-27T01:10:48.610Z,71.04
2019-02-27T01:12:59.445Z,71.50
2019-02-27T01:15:51.892Z,71.97
2019-02-27T01:18:02.829Z,72.05
2019-02-27T01:20:35.389Z,71.40
2019-02-27T01:22:46.200Z,71.12
2019-02-27T01:24:57.151Z,70.70
2019-02-27T01:27:07.970Z,70.49
2019-02-27T01:29:18.796Z,70.27
2019-02-27T01:31:29.664Z,70.42
2019-02-27T01:33:40.503Z,71.00
2019-02-27T01:35:52.131Z,70.86
2019-02-27T01:38:05.288Z,70.99
2019-02-27T01:40:18.032Z,71.06
2019-02-27T01:42:32.794Z,70.85
2019-02-27T01:44:43.995Z,70.97
2019-02-27T01:46:54.901Z,70.74
2019-02-27T01:49:05.722Z,70.51
2019-02-27T01:51:16.518Z,69.59
2019-02-27T01:53:27.307Z,70.09
2019-02-27T01:55:38.132Z,70.54
2019-02-27T01:57:48.929Z,70.93
2019-02-27T01:59:59.757Z,71.46
2019-02-27T02:02:10.546Z,72.04
2019-02-27T02:04:21.383Z,72.22
2019-02-27T02:06:32.926Z,72.10
2019-02-27T02:08:48.000Z,71.70
2019-02-27T02:10:58.900Z,71.62
2019-02-27T02:13:52.131Z,72.08
2019-02-27T02:16:44.589Z,72.07
2019-02-27T02:19:37.044Z,72.25
2019-02-27T02:22:27.586Z,72.68
2019-02-27T02:25:20.037Z,72.58
2019-02-27T02:28:14.704Z,72.53
2019-02-27T02:31:06.405Z,72.60
2019-02-27T02:34:05.110Z,72.25
2019-02-27T02:36:51.434Z,72.30
2019-02-27T02:39:41.973Z,71.81
2019-02-27T02:42:32.530Z,71.28
2019-02-27T02:45:23.091Z,71.45
2019-02-27T02:48:15.567Z,71.51
2019-02-27T02:50:53.918Z,71.29
2019-02-27T02:53:40.592Z,71.04
2019-02-27T02:56:31.127Z,70.72
2019-02-27T02:59:24.927Z,70.98
2019-02-27T03:02:14.112Z,70.93
2019-02-27T03:05:04.673Z,70.26
2019-02-27T03:07:57.148Z,70.34
2019-02-27T03:10:49.580Z,71.11
2019-02-27T03:13:22.228Z,71.54
2019-02-27T03:16:14.681Z,72.20
2019-02-27T03:19:07.158Z,72.60
2019-02-27T03:22:03.122Z,72.72
2019-02-27T03:24:52.079Z,72.72
2019-02-27T03:27:44.511Z,72.46
2019-02-27T03:30:36.875Z,71.37
2019-02-27T03:33:27.578Z,71.75
2019-02-27T03:36:19.967Z,71.80
2019-02-27T03:39:12.438Z,72.10
2019-02-27T03:42:02.957Z,72.16
2019-02-27T03:44:56.371Z,72.06
2019-02-27T03:47:52.084Z,71.92
2019-02-27T03:50:49.566Z,71.78
2019-02-27T03:53:38.473Z,72.51
2019-02-27T03:56:30.929Z,72.85
2019-02-27T03:59:23.391Z,72.40
2019-02-27T04:02:15.836Z,72.15
2019-02-27T04:05:08.295Z,72.62
2019-02-27T04:07:58.846Z,73.30
2019-02-27T04:10:09.661Z,73.66
2019-02-27T04:12:20.462Z,73.28
2019-02-27T04:15:17.740Z,72.99
2019-02-27T04:17:51.888Z,72.87
2019-02-27T04:19:58.145Z,72.71
2019-02-27T04:22:08.943Z,72.50
2019-02-27T04:24:22.551Z,72.95
2019-02-27T04:26:32.477Z,72.54
2019-02-27T04:28:43.265Z,72.86
2019-02-27T04:30:54.106Z,73.31
2019-02-27T04:33:04.932Z,73.21
2019-02-27T04:35:15.754Z,72.98
2019-02-27T04:37:26.562Z,73.01
2019-02-27T04:39:38.289Z,72.86
2019-02-27T04:41:51.995Z,72.97
2019-02-27T04:44:05.369Z,72.84
2019-02-27T04:46:15.595Z,72.63
2019-02-27T04:48:27.085Z,72.57
2019-02-27T04:50:41.731Z,72.50
2019-02-27T04:52:51.918Z,72.37
2019-02-27T04:55:44.360Z,72.71
2019-02-27T04:57:55.173Z,73.05
2019-02-27T05:00:47.625Z,72.91
2019-02-27T05:02:58.449Z,72.85
2019-02-27T05:05:09.348Z,72.97
2019-02-27T05:07:20.842Z,73.08
2019-02-27T05:09:34.046Z,72.83
2019-02-27T05:11:48.338Z,72.87
2019-02-27T05:13:58.383Z,72.51
2019-02-27T05:16:50.852Z,72.11
2019-02-27T05:19:03.992Z,72.35
2019-02-27T05:21:18.955Z,72.28
2019-02-27T05:23:27.204Z,72.26
2019-02-27T05:25:37.993Z,72.51
2019-02-27T05:27:48.804Z,72.46
2019-02-27T05:30:00.097Z,72.64
2019-02-27T05:32:12.323Z,72.51
2019-02-27T05:34:23.161Z,72.46
2019-02-27T05:36:33.954Z,72.59
2019-02-27T05:38:44.780Z,72.51
2019-02-27T05:40:59.847Z,72.38
2019-02-27T05:43:08.312Z,72.41
2019-02-27T05:45:19.100Z,72.51
2019-02-27T05:47:29.886Z,72.36
2019-02-27T05:49:40.708Z,72.23
2019-02-27T05:51:51.506Z,72.25
2019-02-27T05:54:02.325Z,72.79
2019-02-27T05:56:15.615Z,73.06
2019-02-27T05:58:25.820Z,73.10
2019-02-27T06:00:36.627Z,73.45
2019-02-27T06:02:47.429Z,73.93
2019-02-27T06:04:59.160Z,73.82
2019-02-27T06:07:10.974Z,73.85
2019-02-27T06:09:21.777Z,73.77
2019-02-27T06:11:33.199Z,73.96
2019-02-27T06:13:47.593Z,73.68
2019-02-27T06:16:02.768Z,73.38
2019-02-27T06:18:10.747Z,73.22
2019-02-27T06:20:21.600Z,73.26
2019-02-27T06:22:32.508Z,73.50
2019-02-27T06:24:45.598Z,73.49
2019-02-27T06:26:56.055Z,73.39
2019-02-27T06:29:06.992Z,73.48
2019-02-27T06:31:17.828Z,73.61
2019-02-27T06:33:28.628Z,73.66
2019-02-27T06:35:39.443Z,73.60
2019-02-27T06:37:51.358Z,73.47
2019-02-27T06:40:44.621Z,73.12
2019-02-27T06:42:56.883Z,72.57
2019-02-27T06:45:49.824Z,72.49
2019-02-27T06:48:00.667Z,72.56
2019-02-27T06:50:31.346Z,72.66
2019-02-27T06:52:43.030Z,73.07
2019-02-27T06:54:55.006Z,73.72
2019-02-27T06:57:07.772Z,73.81
2019-02-27T06:59:18.541Z,73.81
2019-02-27T07:01:29.369Z,73.80
2019-02-27T07:03:40.178Z,73.62
2019-02-27T07:05:51.020Z,73.38
2019-02-27T07:08:02.219Z,73.06
2019-02-27T07:10:36.282Z,72.87
2019-02-27T07:12:47.098Z,72.83
2019-02-27T07:14:57.901Z,72.71
2019-02-27T07:17:08.746Z,72.59
2019-02-27T07:19:19.569Z,72.58
2019-02-27T07:21:32.828Z,72.61
2019-02-27T07:23:43.112Z,72.64
2019-02-27T07:25:53.909Z,72.69
2019-02-27T07:28:08.391Z,72.74
2019-02-27T07:30:59.213Z,72.80
2019-02-27T07:33:10.071Z,72.82
2019-02-27T07:35:25.605Z,71.44
2019-02-27T07:37:33.628Z,68.58
2019-02-27T07:39:44.431Z,66.42
2019-02-27T07:41:55.247Z,64.71
2019-02-27T07:44:06.053Z,63.96
2019-02-27T07:46:16.933Z,61.86
2019-02-27T07:48:27.792Z,59.75
2019-02-27T07:50:38.623Z,58.64
2019-02-27T07:52:51.839Z,56.29
2019-02-27T07:55:43.902Z,54.81
2019-02-27T07:57:58.401Z,54.55
2019-02-27T08:00:27.298Z,53.04
2019-02-27T08:02:38.091Z,52.64
2019-02-27T08:04:48.905Z,50.91
2019-02-27T08:06:59.718Z,49.70
2019-02-27T08:09:10.556Z,48.28
2019-02-27T08:11:21.375Z,48.38
2019-02-27T08:13:32.170Z,47.23
2019-02-27T08:15:42.976Z,46.75
2019-02-27T08:17:57.476Z,46.25
2019-02-27T08:20:48.189Z,45.08
2019-02-27T08:22:59.062Z,44.63
2019-02-27T08:25:29.738Z,44.30
2019-02-27T08:27:43.085Z,43.98
2019-02-27T08:29:53.262Z,43.24
2019-02-27T08:32:05.540Z,42.52
2019-02-27T08:34:16.936Z,42.49
2019-02-27T08:36:27.749Z,44.10
2019-02-27T08:38:38.557Z,42.39
2019-02-27T08:40:49.348Z,41.68
2019-02-27T08:43:00.158Z,41.45
2019-02-27T08:45:30.847Z,40.75
2019-02-27T08:47:43.506Z,40.16
2019-02-27T08:49:57.629Z,40.07
2019-02-27T08:52:08.540Z,39.87
2019-02-27T08:54:19.942Z,40.25
2019-02-27T08:56:30.748Z,40.56
2019-02-27T08:58:41.542Z,39.89
2019-02-27T09:00:52.460Z,39.18
2019-02-27T09:03:03.747Z,38.76
2019-02-27T09:05:19.783Z,38.29
2019-02-27T09:07:28.937Z,38.24
2019-02-27T09:09:39.789Z,38.02
2019-02-27T09:11:50.600Z,38.42
2019-02-27T09:14:01.417Z,37.96
2019-02-27T09:16:12.246Z,39.36
2019-02-27T09:18:23.077Z,37.59
2019-02-27T09:20:33.941Z,36.50
2019-02-27T09:22:44.753Z,36.62
2019-02-27T09:24:57.168Z,36.68
2019-02-27T09:27:08.291Z,37.53
2019-02-27T09:29:19.313Z,36.08
2019-02-27T09:31:30.154Z,38.13
2019-02-27T09:33:40.966Z,36.41
2019-02-27T09:35:51.798Z,36.26
2019-02-27T09:38:02.599Z,36.05
2019-02-27T09:40:55.072Z,35.29
2019-02-27T09:43:06.330Z,35.75
2019-02-27T09:45:38.546Z,35.02
2019-02-27T09:47:49.484Z,35.04
2019-02-27T09:50:00.293Z,34.04
2019-02-27T09:52:11.117Z,33.99
2019-02-27T09:54:21.925Z,34.52
2019-02-27T09:56:32.869Z,34.13
2019-02-27T09:58:45.552Z,34.55
2019-02-27T10:01:38.048Z,34.45
2019-02-27T10:03:48.854Z,33.91
2019-02-27T10:05:59.648Z,34.15
2019-02-27T10:10:50.333Z,35.13
2019-02-27T10:13:03.278Z,33.73
2019-02-27T10:18:06.332Z,33.26
2019-02-27T10:20:17.138Z,34.09
2019-02-27T10:22:27.931Z,33.51
2019-02-27T10:24:38.782Z,33.22
2019-02-27T10:26:49.723Z,33.33
2019-02-27T10:29:00.574Z,33.45
2019-02-27T10:31:12.728Z,33.88
2019-02-27T10:33:25.842Z,33.04
2019-02-27T10:35:36.872Z,33.27
2019-02-27T10:37:50.469Z,32.58
2019-02-27T10:40:00.410Z,32.50
2019-02-27T10:42:11.318Z,33.61
2019-02-27T10:44:22.196Z,31.85
2019-02-27T10:46:33.025Z,32.09
2019-02-27T10:48:46.932Z,30.69
2019-02-27T10:50:56.594Z,30.92
2019-02-27T10:53:07.415Z,28.22
2019-02-27T10:55:59.895Z,28.75
2019-02-27T10:58:13.275Z,28.12
2019-02-27T11:01:05.089Z,25.94
2019-02-27T11:03:15.893Z,26.24
2019-02-27T11:06:08.390Z,25.74
2019-02-27T11:08:20.027Z,25.51
2019-02-27T11:10:30.862Z,24.80
2019-02-27T11:12:41.791Z,24.72
2019-02-27T11:14:52.625Z,23.70
2019-02-27T11:17:03.504Z,23.56
2019-02-27T11:19:16.645Z,22.78
2019-02-27T11:21:26.965Z,23.81
2019-02-27T11:23:40.906Z,23.54
2019-02-27T11:25:50.574Z,24.12
2019-02-27T11:28:01.399Z,24.22
2019-02-27T11:30:36.176Z,23.61
2019-02-27T11:32:46.192Z,24.00
2019-02-27T11:34:56.976Z,23.55
2019-02-27T11:37:12.854Z,22.45
2019-02-27T11:39:20.480Z,23.41
2019-02-27T11:41:31.297Z,23.41
2019-02-27T11:43:42.106Z,22.08
2019-02-27T11:45:57.526Z,21.76
2019-02-27T11:48:05.704Z,21.34
2019-02-27T11:50:58.158Z,21.30
2019-02-27T11:53:08.959Z,22.04
2019-02-27T11:56:01.438Z,21.76
2019-02-27T11:58:12.246Z,21.82
2019-02-27T12:01:04.744Z,22.38
2019-02-27T12:03:15.647Z,20.86
2019-02-27T12:06:08.505Z,19.20
2019-02-27T12:08:19.308Z,20.44
2019-02-27T12:11:13.269Z,19.58
2019-02-27T12:13:24.595Z,18.34
2019-02-27T12:15:35.413Z,18.51
2019-02-27T12:17:47.013Z,19.12
2019-02-27T12:19:59.037Z,18.60
2019-02-27T12:22:09.864Z,17.56
2019-02-27T12:24:20.705Z,18.07
2019-02-27T12:26:34.448Z,18.55
2019-02-27T12:28:44.476Z,19.07
2019-02-27T12:30:55.297Z,19.57
2019-02-27T12:33:06.148Z,19.36
2019-02-27T12:35:36.831Z,19.58
2019-02-27T12:37:47.730Z,20.09
2019-02-27T12:39:58.543Z,20.57
2019-02-27T12:42:09.360Z,20.09
2019-02-27T12:44:20.177Z,19.44
2019-02-27T12:46:31.842Z,19.11
2019-02-27T12:48:46.139Z,19.40
2019-02-27T12:50:56.434Z,20.38
2019-02-27T12:53:07.264Z,20.17
2019-02-27T12:57:56.598Z,20.64
2019-02-27T13:00:49.062Z,20.03
2019-02-27T13:02:59.977Z,20.81
2019-02-27T13:05:52.468Z,21.40
2019-02-27T13:08:03.304Z,21.12
2019-02-27T13:10:34.426Z,20.52
2019-02-27T13:12:45.222Z,20.75
2019-02-27T13:14:56.037Z,20.72
2019-02-27T13:17:06.833Z,20.95
2019-02-27T13:19:17.703Z,20.44
2019-02-27T13:21:28.500Z,20.86
2019-02-27T13:23:42.234Z,21.05
2019-02-27T13:25:52.042Z,22.68
2019-02-27T13:28:02.963Z,23.14
2019-02-27T13:30:33.652Z,23.21
2019-02-27T13:32:44.495Z,23.21
2019-02-27T13:34:55.316Z,23.40
2019-02-27T13:37:06.900Z,22.66
2019-02-27T13:39:18.844Z,23.23
2019-02-27T13:41:29.660Z,23.89
2019-02-27T13:43:40.483Z,23.77
2019-02-27T13:45:51.289Z,23.58
2019-02-27T13:50:34.652Z,23.54
2019-02-27T13:52:49.817Z,23.71
2019-02-27T13:54:58.142Z,23.24
2019-02-27T13:57:08.954Z,23.22
2019-02-27T13:59:19.756Z,22.97
2019-02-27T14:01:30.586Z,22.88
2019-02-27T14:03:41.492Z,22.94
2019-02-27T14:05:52.408Z,22.35
2019-02-27T14:08:03.305Z,22.83
2019-02-27T14:10:55.813Z,23.25
2019-02-27T14:13:09.733Z,22.94
2019-02-27T14:16:01.604Z,22.95
2019-02-27T14:18:13.449Z,23.43
2019-02-27T14:20:27.064Z,23.77
2019-02-27T14:22:40.730Z,24.05
2019-02-27T14:24:51.833Z,23.86
2019-02-27T14:27:03.678Z,23.30
2019-02-27T14:29:14.467Z,23.98
2019-02-27T14:31:25.265Z,23.99
2019-02-27T14:33:36.171Z,24.31
2019-02-27T14:35:47.237Z,24.40
2019-02-27T14:37:58.045Z,24.51
2019-02-27T14:40:50.491Z,24.10
2019-02-27T14:43:01.453Z,23.58
2019-02-27T14:45:53.881Z,23.53
2019-02-27T14:48:04.796Z,24.10
2019-02-27T14:50:57.237Z,23.65
2019-02-27T14:53:08.066Z,23.46
2019-02-27T14:56:00.515Z,23.47
2019-02-27T14:58:11.357Z,24.20
2019-02-27T15:01:03.822Z,24.39
2019-02-27T15:03:14.660Z,24.54
2019-02-27T15:05:25.475Z,24.18
2019-02-27T15:07:36.386Z,24.66
2019-02-27T15:09:48.011Z,24.93
2019-02-27T15:11:59.941Z,25.51
2019-02-27T15:14:10.775Z,25.66
2019-02-27T15:16:21.939Z,25.84
2019-02-27T15:18:32.777Z,25.93
2019-02-27T15:20:43.797Z,25.88
2019-02-27T15:22:54.871Z,26.26
2019-02-27T15:25:47.333Z,26.56
2019-02-27T15:27:59.522Z,26.58
2019-02-27T15:30:52.647Z,26.86
2019-02-27T15:33:05.466Z,27.76
2019-02-27T15:35:21.026Z,28.16
2019-02-27T15:37:30.354Z,28.37
2019-02-27T15:39:41.193Z,28.33
2019-02-27T15:41:51.996Z,28.67
2019-02-27T15:44:03.055Z,29.09
2019-02-27T15:46:13.940Z,28.82
2019-02-27T15:48:24.895Z,29.00
2019-02-27T15:50:35.738Z,29.27
2019-02-27T15:52:46.558Z,29.45
2019-02-27T15:54:59.192Z,29.62
2019-02-27T15:57:10.096Z,29.87
2019-02-27T15:59:20.986Z,29.95
2019-02-27T16:01:33.093Z,30.27
2019-02-27T16:03:46.505Z,30.51
2019-02-27T16:05:57.412Z,30.60
2019-02-27T16:08:08.217Z,30.65
2019-02-27T16:10:42.602Z,30.66
2019-02-27T16:12:51.758Z,30.59
2019-02-27T16:15:22.515Z,31.04
2019-02-27T16:17:33.444Z,30.71
2019-02-27T16:19:44.716Z,30.79
2019-02-27T16:21:57.876Z,30.94
2019-02-27T16:24:10.266Z,31.24
2019-02-27T16:26:26.969Z,31.42
2019-02-27T16:28:35.179Z,31.73
2019-02-27T16:30:45.977Z,32.24
2019-02-27T16:32:56.932Z,32.83
2019-02-27T16:35:08.140Z,33.18
2019-02-27T16:37:22.850Z,33.62
2019-02-27T16:39:33.303Z,33.99
2019-02-27T16:41:45.040Z,34.57
2019-02-27T16:43:56.875Z,34.85
2019-02-27T16:46:08.767Z,35.12
2019-02-27T16:48:20.406Z,35.35
2019-02-27T16:50:31.216Z,35.64
2019-02-27T16:52:42.778Z,36.04
2019-02-27T16:54:54.906Z,36.93
2019-02-27T16:57:05.736Z,38.14
2019-02-27T16:59:16.574Z,38.84
2019-02-27T17:01:29.558Z,39.54
2019-02-27T17:03:40.112Z,39.91
2019-02-27T17:05:50.917Z,39.89
2019-02-27T17:08:02.736Z,39.47
2019-02-27T17:10:56.189Z,39.44
2019-02-27T17:13:06.982Z,39.39
2019-02-27T17:15:17.997Z,39.78
2019-02-27T17:17:28.843Z,40.06
2019-02-27T17:19:39.676Z,40.23
2019-02-27T17:21:50.475Z,40.53
2019-02-27T17:24:01.327Z,41.07
2019-02-27T17:26:12.148Z,43.05
2019-02-27T17:28:23.024Z,42.21
2019-02-27T17:31:15.476Z,42.12
2019-02-27T17:33:26.330Z,42.36
2019-02-27T17:35:37.145Z,43.58
2019-02-27T17:37:48.025Z,43.99
2019-02-27T17:39:59.319Z,44.18
2019-02-27T17:42:11.626Z,44.27
2019-02-27T17:44:22.447Z,44.38
2019-02-27T17:46:33.242Z,44.77
2019-02-27T17:48:45.945Z,44.99
2019-02-27T17:50:56.821Z,45.42
2019-02-27T17:53:07.630Z,45.71
2019-02-27T17:55:18.564Z,45.47
2019-02-27T17:57:29.350Z,45.49
2019-02-27T17:59:42.424Z,45.45
2019-02-27T18:01:53.186Z,45.64
2019-02-27T18:04:03.994Z,45.83
2019-02-27T18:06:14.822Z,46.32
2019-02-27T18:08:25.633Z,46.11
2019-02-27T18:13:15.497Z,47.03
2019-02-27T18:15:26.342Z,47.45
2019-02-27T18:17:37.126Z,48.01
2019-02-27T18:19:50.176Z,48.47
2019-02-27T18:22:00.735Z,48.64
2019-02-27T18:24:11.545Z,49.21
2019-02-27T18:26:22.380Z,49.43
2019-02-27T18:28:33.706Z,49.32
2019-02-27T18:30:45.968Z,49.38
2019-02-27T18:32:56.917Z,50.19
2019-02-27T18:35:07.823Z,50.29
2019-02-27T18:37:19.740Z,50.41
2019-02-27T18:39:36.381Z,50.69
2019-02-27T18:41:45.731Z,50.67
2019-02-27T18:43:56.827Z,51.43
2019-02-27T18:46:07.688Z,51.59
2019-02-27T18:48:18.516Z,52.31
2019-02-27T18:50:29.461Z,52.52
2019-02-27T18:52:40.266Z,52.83
2019-02-27T18:54:51.090Z,53.28
2019-02-27T18:57:01.920Z,53.53
2019-02-27T18:59:12.832Z,53.76
2019-02-27T19:01:23.864Z,53.67
2019-02-27T19:03:34.655Z,53.53
2019-02-27T19:05:45.475Z,54.16
2019-02-27T19:07:56.421Z,54.15
2019-02-27T19:12:45.432Z,54.13
2019-02-27T19:14:56.352Z,54.26
2019-02-27T19:17:07.342Z,54.13
2019-02-27T19:19:18.306Z,54.15
2019-02-27T19:21:32.552Z,54.42
2019-02-27T19:23:41.846Z,54.63
2019-02-27T19:25:52.669Z,54.74
2019-02-27T19:28:03.513Z,55.10
2019-02-27T19:30:34.821Z,55.33
2019-02-27T19:33:27.532Z,55.77
2019-02-27T19:35:38.320Z,56.32
2019-02-27T19:37:49.158Z,56.50
2019-02-27T19:39:59.982Z,57.23
2019-02-27T19:42:13.128Z,57.06
2019-02-27T19:44:28.585Z,56.90
2019-02-27T19:46:36.404Z,56.73
2019-02-27T19:48:47.258Z,56.76
2019-02-27T19:50:58.167Z,57.08
2019-02-27T19:53:09.098Z,56.98
2019-02-27T19:55:19.926Z,57.24
2019-02-27T19:57:30.715Z,57.31
2019-02-27T19:59:41.571Z,57.55
2019-02-27T20:01:52.390Z,57.46
2019-02-27T20:04:03.232Z,57.54
2019-02-27T20:06:14.060Z,57.57
2019-02-27T20:08:26.482Z,57.74
2019-02-27T20:10:37.815Z,57.82
2019-02-27T20:12:52.934Z,57.55
2019-02-27T20:15:01.574Z,57.34
2019-02-27T20:17:12.421Z,57.15
2019-02-27T20:19:28.373Z,56.91
2019-02-27T20:21:36.071Z,56.74
2019-02-27T20:23:46.923Z,56.64
2019-02-27T20:25:57.718Z,56.57
2019-02-27T20:28:08.631Z,56.55
2019-02-27T20:31:01.115Z,56.56
2019-02-27T20:33:11.997Z,56.64
2019-02-27T20:35:22.960Z,57.28
2019-02-27T20:37:33.874Z,57.76
2019-02-27T20:39:44.879Z,58.55
2019-02-27T20:41:55.718Z,58.80
2019-02-27T20:44:06.616Z,58.62
2019-02-27T20:46:17.559Z,58.93
2019-02-27T20:48:28.343Z,59.25
2019-02-27T20:51:20.816Z,60.24
2019-02-27T20:53:31.639Z,60.00
2019-02-27T20:55:42.442Z,60.49
2019-02-27T20:57:53.388Z,60.46
2019-02-27T21:00:45.887Z,60.11
2019-02-27T21:02:56.886Z,60.24
2019-02-27T21:05:49.371Z,60.63
2019-02-27T21:08:02.061Z,60.68
2019-02-27T21:10:33.276Z,61.07
2019-02-27T21:12:53.522Z,61.21
2019-02-27T21:14:57.933Z,61.13
2019-02-27T21:17:09.664Z,61.11
2019-02-27T21:19:20.472Z,61.05
2019-02-27T21:21:32.786Z,60.93
2019-02-27T21:23:44.148Z,60.98
2019-02-27T21:25:54.977Z,61.14
2019-02-27T21:28:07.623Z,61.77
2019-02-27T21:31:00.192Z,61.71
2019-02-27T21:33:11.918Z,61.72
2019-02-27T21:35:28.928Z,62.01
2019-02-27T21:37:36.738Z,62.58
2019-02-27T21:39:47.551Z,62.59
2019-02-27T21:41:58.417Z,63.03
2019-02-27T21:44:09.242Z,63.17
2019-02-27T21:46:20.057Z,63.26
2019-02-27T21:48:30.887Z,63.06
2019-02-27T21:50:41.702Z,62.87
2019-02-27T21:52:54.390Z,62.72
2019-02-27T21:55:46.991Z,62.71
2019-02-27T21:57:58.258Z,62.92
2019-02-27T22:00:30.373Z,63.49
2019-02-27T22:02:41.201Z,63.48
2019-02-27T22:04:52.024Z,63.41
2019-02-27T22:07:02.816Z,63.24
2019-02-27T22:09:14.606Z,62.50
2019-02-27T22:11:27.104Z,62.72
2019-02-27T22:13:39.192Z,62.57
2019-02-27T22:15:50.053Z,62.70
2019-02-27T22:18:00.971Z,62.46
2019-02-27T22:20:12.001Z,62.47
2019-02-27T22:22:22.823Z,62.42
2019-02-27T22:24:33.637Z,62.55
2019-02-27T22:26:44.465Z,62.51
2019-02-27T22:28:55.302Z,62.70
2019-02-27T22:31:07.597Z,63.07
2019-02-27T22:33:22.035Z,63.49
2019-02-27T22:35:37.289Z,63.64
2019-02-27T22:37:44.457Z,63.17
2019-02-27T22:39:55.377Z,63.76
2019-02-27T22:42:06.178Z,64.16
2019-02-27T22:44:17.019Z,63.98
2019-02-27T22:46:27.869Z,64.26
2019-02-27T22:48:38.678Z,63.95
2019-02-27T22:50:49.498Z,63.89
2019-02-27T22:53:00.303Z,63.96
2019-02-27T22:55:11.330Z,63.68
2019-02-27T22:57:22.884Z,63.73
2019-02-27T22:59:37.341Z,63.75
2019-02-27T23:02:29.236Z,63.74
2019-02-27T23:04:40.050Z,63.86
2019-02-27T23:06:50.888Z,64.35
2019-02-27T23:11:54.041Z,64.05
2019-02-27T23:14:04.942Z,63.97
2019-02-27T23:16:16.070Z,64.18
2019-02-27T23:18:26.954Z,64.31
2019-02-27T23:20:37.777Z,64.26
2019-02-27T23:22:48.604Z,64.24
2019-02-27T23:25:19.316Z,64.68
2019-02-27T23:27:30.131Z,64.68
2019-02-27T23:29:40.927Z,64.88
2019-02-27T23:31:54.862Z,64.71
2019-02-27T23:34:07.789Z,64.48
2019-02-27T23:36:17.339Z,64.36
2019-02-27T23:38:28.118Z,64.14
2019-02-27T23:40:38.921Z,63.57
2019-02-27T23:42:49.760Z,63.60
2019-02-27T23:45:00.561Z,63.40
2019-02-27T23:47:11.383Z,63.44
2019-02-27T23:49:22.192Z,63.45
2019-02-27T23:51:33.000Z,63.37
2019-02-27T23:53:43.807Z,63.59
2019-02-27T23:55:54.714Z,63.78
2019-02-27T23:58:05.528Z,64.41
